Time,TemperatureF,DewpointF,PressureIn,WindDirection,WindDirectionDegrees,WindSpeedMPH,WindSpeedGustMPH,Humidity,HourlyPrecipIn,Conditions,Clouds,dailyrainin,SolarRadiationWatts/m^2,SoftwareType,DateUTC
2013-01-14 00:05:00,47.0,46.0,30.01,SE,138,0.0,3.0,97,0.00,,,0.00,0,weatherlink.com 1.10,2013-01-14 05:05:00,
2013-01-14 00:20:00,46.7,46.0,30.00,SE,136,3.0,5.0,97,0.01,,,0.01,0,weatherlink.com 1.10,2013-01-14 05:20:00,
2013-01-14 00:35:00,46.7,46.0,30.01,SE,138,0.0,4.0,97,0.01,,,0.01,0,weatherlink.com 1.10,2013-01-14 05:35:00,
2013-01-14 00:50:00,46.8,46.0,30.01,SE,143,2.0,3.0,98,0.01,,,0.01,0,weatherlink.com 1.10,2013-01-14 05:50:00,
2013-01-14 01:05:00,46.5,46.0,30.00,SE,137,1.0,5.0,97,0.01,,,0.01,0,weatherlink.com 1.10,2013-01-14 06:05:00,
2013-01-14 01:20:00,46.4,46.0,30.00,SE,142,1.0,3.0,97,0.00,,,0.01,0,weatherlink.com 1.10,2013-01-14 06:20:00,
2013-01-14 01:35:00,46.5,46.0,30.01,SE,140,2.0,4.0,97,0.00,,,0.01,0,weatherlink.com 1.10,2013-01-14 06:35:00,
2013-01-14 01:50:00,46.5,46.0,30.01,SE,133,1.0,5.0,97,0.00,,,0.01,0,weatherlink.com 1.10,2013-01-14 06:50:00,
2013-01-14 02:05:00,46.5,46.0,30.02,ESE,112,1.0,4.0,97,0.00,,,0.01,0,weatherlink.com 1.10,2013-01-14 07:05:00,
2013-01-14 02:20:00,46.5,46.0,30.02,ESE,123,2.0,4.0,97,0.00,,,0.01,0,weatherlink.com 1.10,2013-01-14 07:20:00,
2013-01-14 02:35:00,46.5,46.0,30.01,SE,127,2.0,5.0,97,0.00,,,0.01,0,weatherlink.com 1.10,2013-01-14 07:35:00,
2013-01-14 02:50:00,46.3,46.0,30.00,ESE,117,3.0,4.0,97,0.00,,,0.01,0,weatherlink.com 1.10,2013-01-14 07:50:00,
2013-01-14 03:05:00,46.7,46.0,30.01,SE,130,2.0,5.0,98,0.00,,,0.01,0,weatherlink.com 1.10,2013-01-14 08:05:00,
2013-01-14 03:20:00,46.4,46.0,30.00,SSW,202,2.0,4.0,97,0.00,,,0.01,0,weatherlink.com 1.10,2013-01-14 08:20:00,
2013-01-14 03:35:00,46.4,46.0,29.99,SE,126,3.0,5.0,98,0.00,,,0.01,0,weatherlink.com 1.10,2013-01-14 08:35:00,
2013-01-14 03:50:00,46.3,46.0,30.00,SE,146,2.0,5.0,98,0.00,,,0.01,0,weatherlink.com 1.10,2013-01-14 08:50:00,
2013-01-14 04:05:00,46.4,46.0,29.98,SE,130,1.0,5.0,98,0.00,,,0.01,0,weatherlink.com 1.10,2013-01-14 09:05:00,
2013-01-14 04:20:00,46.5,46.0,29.99,SSW,202,1.0,4.0,98,0.00,,,0.01,0,weatherlink.com 1.10,2013-01-14 09:20:00,
2013-01-14 04:35:00,46.5,46.0,29.99,WSW,246,0.0,3.0,98,0.00,,,0.01,0,weatherlink.com 1.10,2013-01-14 09:35:00,
2013-01-14 04:50:00,46.5,46.0,29.99,SSE,165,0.0,2.0,98,0.00,,,0.01,0,weatherlink.com 1.10,2013-01-14 09:50:00,
2013-01-14 05:05:00,46.5,46.0,29.98,SE,146,1.0,3.0,98,0.00,,,0.01,0,weatherlink.com 1.10,2013-01-14 10:05:00,
2013-01-14 05:20:00,46.1,45.0,29.98,SE,141,1.0,3.0,97,0.00,,,0.01,0,weatherlink.com 1.10,2013-01-14 10:20:00,
2013-01-14 05:35:00,46.0,46.0,29.97,ESE,120,2.0,3.0,98,0.00,,,0.01,0,weatherlink.com 1.10,2013-01-14 10:35:00,
2013-01-14 05:50:00,46.0,46.0,29.97,ESE,123,2.0,4.0,98,0.00,,,0.01,0,weatherlink.com 1.10,2013-01-14 10:50:00,
2013-01-14 06:05:00,45.9,45.0,29.95,SE,136,4.0,11.0,98,0.00,,,0.01,0,weatherlink.com 1.10,2013-01-14 11:05:00,
2013-01-14 06:20:00,46.0,46.0,29.98,WSW,252,2.0,8.0,98,0.00,,,0.01,0,weatherlink.com 1.10,2013-01-14 11:20:00,
2013-01-14 06:35:00,46.0,46.0,29.95,SE,143,6.0,9.0,98,0.00,,,0.01,0,weatherlink.com 1.10,2013-01-14 11:35:00,
2013-01-14 06:50:00,46.0,46.0,29.93,SE,126,7.0,9.0,98,0.00,,,0.01,0,weatherlink.com 1.10,2013-01-14 11:50:00,
2013-01-14 07:05:00,48.1,48.0,29.99,WSW,244,1.0,4.0,98,0.00,,,0.01,0,weatherlink.com 1.10,2013-01-14 12:05:00,
2013-01-14 07:20:00,48.4,48.0,30.01,WSW,242,0.0,3.0,98,0.00,,,0.01,0,weatherlink.com 1.10,2013-01-14 12:20:00,
2013-01-14 07:50:00,49.0,49.0,30.03,WSW,242,1.0,1.0,98,0.00,,,0.01,5,weatherlink.com 1.10,2013-01-14 12:50:00,
2013-01-14 08:05:00,49.6,49.0,30.02,North,5,0.0,4.0,98,0.00,,,0.01,16,weatherlink.com 1.10,2013-01-14 13:05:00,
2013-01-14 08:20:00,49.1,49.0,30.02,North,5,1.0,3.0,98,0.00,,,0.01,14,weatherlink.com 1.10,2013-01-14 13:20:00,
2013-01-14 08:35:00,49.0,49.0,30.04,North,5,0.0,1.0,98,0.00,,,0.01,18,weatherlink.com 1.10,2013-01-14 13:35:00,
2013-01-14 08:50:00,49.6,49.0,30.05,North,5,0.0,2.0,98,0.00,,,0.01,42,weatherlink.com 1.10,2013-01-14 13:50:00,
2013-01-14 09:06:00,49.7,49.0,30.05,North,5,0.0,0.0,98,0.00,,,0.01,33,weatherlink.com 1.10,2013-01-14 14:06:00,
2013-01-14 09:21:00,49.5,49.0,30.05,North,5,0.0,1.0,98,0.00,,,0.01,47,weatherlink.com 1.10,2013-01-14 14:21:00,
2013-01-14 09:36:00,50.2,50.0,30.07,West,273,0.0,1.0,98,0.00,,,0.01,44,weatherlink.com 1.10,2013-01-14 14:36:00,
2013-01-14 09:51:00,51.0,51.0,30.07,WSW,246,1.0,2.0,98,0.00,,,0.01,49,weatherlink.com 1.10,2013-01-14 14:51:00,
2013-01-14 10:06:00,52.0,52.0,30.07,WSW,238,0.0,6.0,98,0.00,,,0.01,107,weatherlink.com 1.10,2013-01-14 15:06:00,
2013-01-14 10:21:00,53.1,53.0,30.08,WSW,237,1.0,5.0,98,0.00,,,0.01,214,weatherlink.com 1.10,2013-01-14 15:21:00,
2013-01-14 10:36:00,53.4,53.0,30.08,WSW,250,1.0,3.0,98,0.00,,,0.01,214,weatherlink.com 1.10,2013-01-14 15:36:00,
2013-01-14 10:51:00,53.3,53.0,30.07,WSW,241,1.0,4.0,98,0.00,,,0.01,257,weatherlink.com 1.10,2013-01-14 15:51:00,
2013-01-14 11:06:00,53.0,53.0,30.08,NNE,30,1.0,3.0,98,0.00,,,0.01,207,weatherlink.com 1.10,2013-01-14 16:06:00,
2013-01-14 11:21:00,53.3,53.0,30.07,WSW,253,1.0,3.0,98,0.00,,,0.01,105,weatherlink.com 1.10,2013-01-14 16:21:00,
2013-01-14 11:36:00,53.1,53.0,30.06,SSW,207,0.0,2.0,98,0.00,,,0.01,165,weatherlink.com 1.10,2013-01-14 16:36:00,
2013-01-14 11:51:00,53.2,52.0,30.07,North,11,0.0,4.0,97,0.00,,,0.01,174,weatherlink.com 1.10,2013-01-14 16:51:00,
2013-01-14 12:06:00,53.4,53.0,30.06,WSW,242,0.0,2.0,97,0.00,,,0.01,153,weatherlink.com 1.10,2013-01-14 17:06:00,
2013-01-14 12:21:00,53.6,53.0,30.06,WSW,240,1.0,2.0,97,0.00,,,0.01,149,weatherlink.com 1.10,2013-01-14 17:21:00,
2013-01-14 12:36:00,53.8,53.0,30.06,SSW,207,0.0,1.0,96,0.00,,,0.01,171,weatherlink.com 1.10,2013-01-14 17:36:00,
2013-01-14 12:51:00,54.6,53.0,30.06,SSW,211,0.0,4.0,95,0.00,,,0.01,163,weatherlink.com 1.10,2013-01-14 17:51:00,
2013-01-14 13:06:00,54.6,53.0,30.06,SSW,212,0.0,2.0,94,0.00,,,0.01,185,weatherlink.com 1.10,2013-01-14 18:06:00,
2013-01-14 13:21:00,54.6,53.0,30.07,SSE,164,0.0,3.0,94,0.00,,,0.01,127,weatherlink.com 1.10,2013-01-14 18:21:00,
2013-01-14 13:36:00,54.8,53.0,30.08,South,191,0.0,2.0,93,0.00,,,0.01,72,weatherlink.com 1.10,2013-01-14 18:36:00,
2013-01-14 13:51:00,55.0,53.0,30.08,North,9,2.0,3.0,92,0.00,,,0.01,123,weatherlink.com 1.10,2013-01-14 18:51:00,
2013-01-14 14:06:00,54.6,52.0,30.09,SSE,163,0.0,5.0,89,0.00,,,0.01,137,weatherlink.com 1.10,2013-01-14 19:06:00,
2013-01-14 14:21:00,54.4,51.0,30.10,SE,131,1.0,4.0,88,0.00,,,0.01,171,weatherlink.com 1.10,2013-01-14 19:21:00,
2013-01-14 14:36:00,54.4,50.0,30.12,NE,53,0.0,6.0,85,0.00,,,0.01,63,weatherlink.com 1.10,2013-01-14 19:36:00,
2013-01-14 14:51:00,53.9,49.0,30.12,ENE,75,1.0,2.0,84,0.00,,,0.01,42,weatherlink.com 1.10,2013-01-14 19:51:00,
2013-01-14 15:21:00,54.1,49.0,30.12,ENE,67,1.0,2.0,82,0.00,,,0.01,25,weatherlink.com 1.10,2013-01-14 20:21:00,
2013-01-14 15:36:00,54.2,48.0,30.12,North,5,0.0,3.0,80,0.00,,,0.01,18,weatherlink.com 1.10,2013-01-14 20:36:00,
2013-01-14 15:51:00,54.0,47.0,30.13,NNE,25,1.0,7.0,78,0.00,,,0.01,12,weatherlink.com 1.10,2013-01-14 20:51:00,
2013-01-14 16:06:00,53.6,46.0,30.13,NE,45,0.0,2.0,74,0.00,,,0.01,14,weatherlink.com 1.10,2013-01-14 21:06:00,
2013-01-14 16:21:00,53.2,44.0,30.12,North,5,0.0,3.0,72,0.00,,,0.01,11,weatherlink.com 1.10,2013-01-14 21:21:00,
2013-01-14 16:36:00,52.8,44.0,30.16,SSW,205,0.0,1.0,71,0.00,,,0.01,0,weatherlink.com 1.10,2013-01-14 21:36:00,
2013-01-14 16:51:00,52.7,43.0,30.14,SSW,199,0.0,1.0,70,0.00,,,0.01,0,weatherlink.com 1.10,2013-01-14 21:51:00,
2013-01-14 17:06:00,52.2,43.0,30.16,SSW,199,0.0,1.0,72,0.00,,,0.01,0,weatherlink.com 1.10,2013-01-14 22:06:00,
2013-01-14 17:21:00,52.1,43.0,30.15,North,360,2.0,4.0,71,0.00,,,0.01,0,weatherlink.com 1.10,2013-01-14 22:21:00,
2013-01-14 17:36:00,51.8,41.0,30.16,NNE,15,0.0,5.0,68,0.00,,,0.01,0,weatherlink.com 1.10,2013-01-14 22:36:00,
2013-01-14 17:51:00,51.4,40.0,30.15,NNE,16,1.0,5.0,65,0.00,,,0.01,0,weatherlink.com 1.10,2013-01-14 22:51:00,
2013-01-14 18:06:00,51.6,37.0,30.17,NNE,22,1.0,7.0,59,0.00,,,0.01,0,weatherlink.com 1.10,2013-01-14 23:06:00,
2013-01-14 18:22:00,51.2,38.0,30.17,NNE,19,1.0,2.0,60,0.00,,,0.01,0,weatherlink.com 1.10,2013-01-14 23:22:00,
2013-01-14 18:37:00,51.0,37.0,30.17,ENE,61,0.0,4.0,60,0.00,,,0.01,0,weatherlink.com 1.10,2013-01-14 23:37:00,
2013-01-14 18:52:00,50.8,37.0,30.17,NNE,13,1.0,3.0,59,0.00,,,0.01,0,weatherlink.com 1.10,2013-01-14 23:52:00,
2013-01-14 19:07:00,50.3,38.0,30.18,South,170,0.0,2.0,62,0.00,,,0.01,0,weatherlink.com 1.10,2013-01-15 00:07:00,
2013-01-14 19:22:00,49.8,37.0,30.21,West,279,0.0,3.0,62,0.00,,,0.01,0,weatherlink.com 1.10,2013-01-15 00:22:00,
2013-01-14 19:37:00,49.8,36.0,30.21,South,188,0.0,2.0,59,0.00,,,0.01,0,weatherlink.com 1.10,2013-01-15 00:37:00,
2013-01-14 19:52:00,49.6,36.0,30.22,South,177,1.0,3.0,59,0.00,,,0.01,0,weatherlink.com 1.10,2013-01-15 00:52:00,
2013-01-14 20:07:00,49.3,34.0,30.22,South,188,2.0,5.0,55,0.00,,,0.01,0,weatherlink.com 1.10,2013-01-15 01:07:00,
2013-01-14 20:22:00,48.7,34.0,30.23,SSW,213,1.0,8.0,57,0.00,,,0.01,0,weatherlink.com 1.10,2013-01-15 01:22:00,
2013-01-14 20:37:00,48.3,34.0,30.24,East,83,0.0,4.0,58,0.00,,,0.01,0,weatherlink.com 1.10,2013-01-15 01:37:00,
2013-01-14 20:52:00,48.2,33.0,30.23,South,175,3.0,12.0,57,0.00,,,0.01,0,weatherlink.com 1.10,2013-01-15 01:52:00,
2013-01-14 21:07:00,47.9,32.0,30.23,North,355,2.0,9.0,55,0.00,,,0.01,0,weatherlink.com 1.10,2013-01-15 02:07:00,
2013-01-14 21:22:00,47.7,34.0,30.24,North,11,2.0,5.0,59,0.00,,,0.01,0,weatherlink.com 1.10,2013-01-15 02:22:00,
2013-01-14 21:37:00,47.3,35.0,30.25,NE,38,0.0,4.0,63,0.00,,,0.01,0,weatherlink.com 1.10,2013-01-15 02:37:00,
2013-01-14 21:52:00,46.9,33.0,30.25,East,94,6.0,7.0,60,0.00,,,0.01,0,weatherlink.com 1.10,2013-01-15 02:52:00,
2013-01-14 22:07:00,46.6,33.0,30.25,North,10,2.0,8.0,59,0.00,,,0.01,0,weatherlink.com 1.10,2013-01-15 03:07:00,
2013-01-14 22:22:00,46.1,34.0,30.25,NNE,21,0.0,8.0,62,0.00,,,0.01,0,weatherlink.com 1.10,2013-01-15 03:22:00,
2013-01-14 22:37:00,45.7,34.0,30.26,ENE,65,0.0,6.0,64,0.00,,,0.01,0,weatherlink.com 1.10,2013-01-15 03:37:00,
2013-01-14 22:52:00,44.6,35.0,30.27,ESE,113,2.0,6.0,69,0.00,,,0.01,0,weatherlink.com 1.10,2013-01-15 03:52:00,
2013-01-14 23:07:00,43.1,36.0,30.27,NE,39,1.0,6.0,75,0.00,,,0.01,0,weatherlink.com 1.10,2013-01-15 04:07:00,
2013-01-14 23:22:00,42.5,36.0,30.27,NNE,24,4.0,7.0,78,0.01,,,0.02,0,weatherlink.com 1.10,2013-01-15 04:22:00,
2013-01-14 23:37:00,41.8,37.0,30.27,South,172,1.0,7.0,82,0.02,,,0.03,0,weatherlink.com 1.10,2013-01-15 04:37:00,
2013-01-14 23:52:00,41.3,37.0,30.27,NNE,33,2.0,7.0,85,0.03,,,0.04,0,weatherlink.com 1.10,2013-01-15 04:52:00,